Wetterdaten: Montag, 29.11.2010
Datum Zeit Temp. A. Feuchte A. Luftdruck Regen Wind Richtung Richtung Sonnenschein UV Solar Windben
29.11.2010 00:00 -2,3 C 87 % 1006,1 hPa 0,0 mm 1,6 km/h (1 Bft) O 90 0 min 0 UV-I 0 W/m 4,8 km/h (1 Bft)
29.11.2010 00:10 -2,3 C 87 % 1006,0 hPa 0,0 mm 3,2 km/h (1 Bft) O 90 0 min 0 UV-I 0 W/m 9,7 km/h (2 Bft)
29.11.2010 00:20 -2,3 C 87 % 1006,1 hPa 0,0 mm 3,2 km/h (1 Bft) O 90 0 min 0 UV-I 0 W/m 8,0 km/h (2 Bft)
29.11.2010 00:30 -2,3 C 87 % 1006,0 hPa 0,0 mm 1,6 km/h (1 Bft) O 90 0 min 0 UV-I 0 W/m 8,0 km/h (2 Bft)
29.11.2010 00:40 -2,3 C 87 % 1005,9 hPa 0,0 mm 1,6 km/h (1 Bft) O 90 0 min 0 UV-I 0 W/m 8,0 km/h (2 Bft)
29.11.2010 00:50 -2,3 C 87 % 1005,8 hPa 0,0 mm 1,6 km/h (1 Bft) O 90 0 min 0 UV-I 0 W/m 4,8 km/h (1 Bft)
29.11.2010 01:00 -2,3 C 87 % 1005,8 hPa 0,0 mm 1,6 km/h (1 Bft) O 90 0 min 0 UV-I 0 W/m 6,4 km/h (2 Bft)
29.11.2010 01:10 -2,3 C 87 % 1005,8 hPa 0,0 mm 1,6 km/h (1 Bft) O 90 0 min 0 UV-I 0 W/m 8,0 km/h (2 Bft)
29.11.2010 01:20 -2,3 C 87 % 1005,8 hPa 0,0 mm 1,6 km/h (1 Bft) O 90 0 min 0 UV-I 0 W/m 9,7 km/h (2 Bft)
29.11.2010 01:30 -2,3 C 87 % 1005,8 hPa 0,0 mm 1,6 km/h (1 Bft) NO 45 0 min 0 UV-I 0 W/m 4,8 km/h (1 Bft)
29.11.2010 01:40 -2,3 C 87 % 1005,8 hPa 0,0 mm 1,6 km/h (1 Bft) NO 45 0 min 0 UV-I 0 W/m 9,7 km/h (2 Bft)
29.11.2010 01:50 -2,3 C 87 % 1005,7 hPa 0,0 mm 3,2 km/h (1 Bft) NO 45 0 min 0 UV-I 0 W/m 8,0 km/h (2 Bft)
29.11.2010 02:00 -2,3 C 87 % 1005,8 hPa 0,0 mm 3,2 km/h (1 Bft) O-NO 67 0 min 0 UV-I 0 W/m 8,0 km/h (2 Bft)
29.11.2010 02:10 -2,4 C 87 % 1005,7 hPa 0,0 mm 1,6 km/h (1 Bft) O-NO 67 0 min 0 UV-I 0 W/m 4,8 km/h (1 Bft)
29.11.2010 02:20 -2,4 C 87 % 1005,8 hPa 0,0 mm 3,2 km/h (1 Bft) O-NO 67 0 min 0 UV-I 0 W/m 11,3 km/h (2 Bft)
29.11.2010 02:30 -2,4 C 87 % 1005,7 hPa 0,0 mm 1,6 km/h (1 Bft) O-NO 67 0 min 0 UV-I 0 W/m 6,4 km/h (2 Bft)
29.11.2010 02:40 -2,4 C 87 % 1005,7 hPa 0,0 mm 1,6 km/h (1 Bft) O-NO 67 0 min 0 UV-I 0 W/m 4,8 km/h (1 Bft)
29.11.2010 02:50 -2,4 C 87 % 1005,8 hPa 0,0 mm 3,2 km/h (1 Bft) O-NO 67 0 min 0 UV-I 0 W/m 14,5 km/h (3 Bft)
29.11.2010 03:00 -2,4 C 87 % 1005,8 hPa 0,0 mm 4,8 km/h (1 Bft) O-NO 67 0 min 0 UV-I 0 W/m 11,3 km/h (2 Bft)
29.11.2010 03:10 -2,4 C 87 % 1005,8 hPa 0,0 mm 3,2 km/h (1 Bft) O 90 0 min 0 UV-I 0 W/m 11,3 km/h (2 Bft)
29.11.2010 03:20 -2,4 C 87 % 1005,8 hPa 0,0 mm 1,6 km/h (1 Bft) O-NO 67 0 min 0 UV-I 0 W/m 6,4 km/h (2 Bft)
29.11.2010 03:30 -2,4 C 87 % 1005,9 hPa 0,0 mm 1,6 km/h (1 Bft) O-NO 67 0 min 0 UV-I 0 W/m 9,7 km/h (2 Bft)
29.11.2010 03:40 -2,4 C 87 % 1005,8 hPa 0,0 mm 1,6 km/h (1 Bft) O-NO 67 0 min 0 UV-I 0 W/m 6,4 km/h (2 Bft)
29.11.2010 03:50 -2,4 C 87 % 1005,9 hPa 0,0 mm 1,6 km/h (1 Bft) O-NO 67 0 min 0 UV-I 0 W/m 8,0 km/h (2 Bft)
29.11.2010 04:00 -2,4 C 87 % 1005,8 hPa 0,0 mm 1,6 km/h (1 Bft) O-NO 67 0 min 0 UV-I 0 W/m 8,0 km/h (2 Bft)
29.11.2010 04:10 -2,4 C 87 % 1005,7 hPa 0,0 mm 1,6 km/h (1 Bft) O-NO 67 0 min 0 UV-I 0 W/m 6,4 km/h (2 Bft)
29.11.2010 04:20 -2,4 C 87 % 1005,7 hPa 0,0 mm 3,2 km/h (1 Bft) O-NO 67 0 min 0 UV-I 0 W/m 11,3 km/h (2 Bft)
29.11.2010 04:30 -2,4 C 87 % 1005,8 hPa 0,0 mm 3,2 km/h (1 Bft) O-NO 67 0 min 0 UV-I 0 W/m 8,0 km/h (2 Bft)
29.11.2010 04:40 -2,3 C 88 % 1005,8 hPa 0,0 mm 1,6 km/h (1 Bft) O-NO 67 0 min 0 UV-I 0 W/m 8,0 km/h (2 Bft)
29.11.2010 04:50 -2,3 C 88 % 1005,8 hPa 0,0 mm 3,2 km/h (1 Bft) O-NO 67 0 min 0 UV-I 0 W/m 9,7 km/h (2 Bft)
29.11.2010 05:00 -2,3 C 88 % 1005,7 hPa 0,0 mm 4,8 km/h (1 Bft) O-NO 67 0 min 0 UV-I 0 W/m 20,9 km/h (4 Bft)
29.11.2010 05:10 -2,4 C 88 % 1005,7 hPa 0,0 mm 6,4 km/h (2 Bft) O 90 0 min 0 UV-I 0 W/m 14,5 km/h (3 Bft)
29.11.2010 05:20 -2,4 C 88 % 1005,7 hPa 0,0 mm 1,6 km/h (1 Bft) O 90 0 min 0 UV-I 0 W/m 6,4 km/h (2 Bft)
29.11.2010 05:30 -2,4 C 88 % 1005,6 hPa 0,0 mm 3,2 km/h (1 Bft) O 90 0 min 0 UV-I 0 W/m 14,5 km/h (3 Bft)
29.11.2010 05:40 -2,4 C 88 % 1005,5 hPa 0,0 mm 1,6 km/h (1 Bft) O 90 0 min 0 UV-I 0 W/m 8,0 km/h (2 Bft)
29.11.2010 05:50 -2,4 C 88 % 1005,6 hPa 0,0 mm 1,6 km/h (1 Bft) O 90 0 min 0 UV-I 0 W/m 6,4 km/h (2 Bft)
29.11.2010 06:00 -2,4 C 88 % 1005,6 hPa 0,0 mm 1,6 km/h (1 Bft) O 90 0 min 0 UV-I 0 W/m 6,4 km/h (2 Bft)
29.11.2010 06:10 -2,4 C 88 % 1005,6 hPa 0,0 mm 1,6 km/h (1 Bft) N 360 0 min 0 UV-I 0 W/m 11,3 km/h (2 Bft)
29.11.2010 06:20 -2,3 C 88 % 1005,5 hPa 0,0 mm 1,6 km/h (1 Bft) N-NO 22 0 min 0 UV-I 0 W/m 9,7 km/h (2 Bft)
29.11.2010 06:30 -2,3 C 88 % 1005,5 hPa 0,0 mm 3,2 km/h (1 Bft) N-NO 22 0 min 0 UV-I 0 W/m 8,0 km/h (2 Bft)
29.11.2010 06:40 -2,3 C 88 % 1005,5 hPa 0,0 mm 1,6 km/h (1 Bft) N-NO 22 0 min 0 UV-I 0 W/m 8,0 km/h (2 Bft)
29.11.2010 06:50 -2,3 C 88 % 1005,4 hPa 0,0 mm 3,2 km/h (1 Bft) N-NO 22 0 min 0 UV-I 0 W/m 9,7 km/h (2 Bft)
29.11.2010 07:00 -2,3 C 88 % 1005,5 hPa 0,0 mm 1,6 km/h (1 Bft) NO 45 0 min 0 UV-I 0 W/m 6,4 km/h (2 Bft)
29.11.2010 07:10 -2,3 C 88 % 1005,6 hPa 0,0 mm 3,2 km/h (1 Bft) NO 45 0 min 0 UV-I 0 W/m 11,3 km/h (2 Bft)
29.11.2010 07:20 -2,2 C 88 % 1005,7 hPa 0,0 mm 3,2 km/h (1 Bft) NO 45 0 min 0 UV-I 0 W/m 9,7 km/h (2 Bft)
29.11.2010 07:30 -2,2 C 88 % 1005,7 hPa 0,0 mm 1,6 km/h (1 Bft) NO 45 0 min 0 UV-I 0 W/m 8,0 km/h (2 Bft)
29.11.2010 07:40 -2,2 C 88 % 1005,8 hPa 0,0 mm 1,6 km/h (1 Bft) NO 45 0 min 0 UV-I 0 W/m 8,0 km/h (2 Bft)
29.11.2010 07:50 -2,1 C 88 % 1005,9 hPa 0,0 mm 3,2 km/h (1 Bft) NO 45 0 min 0 UV-I 0 W/m 14,5 km/h (3 Bft)
29.11.2010 08:00 -2,1 C 88 % 1005,9 hPa 0,0 mm 2,5 km/h (1 Bft) O-NO 60 0 min 0 UV-I 0 W/m 6,4 km/h (2 Bft)
29.11.2010 08:10 -2,1 C 88 % 1006,0 hPa 0,0 mm 1,6 km/h (1 Bft) O-NO 67 0 min 0 UV-I 0 W/m 6,4 km/h (2 Bft)
29.11.2010 08:20 -2,1 C 88 % 1006,1 hPa 0,0 mm 1,6 km/h (1 Bft) O-NO 67 0 min 0 UV-I 0 W/m 8,0 km/h (2 Bft)
29.11.2010 08:30 -2,1 C 88 % 1006,2 hPa 0,0 mm 3,2 km/h (1 Bft) NO 45 0 min 0 UV-I 0 W/m 11,3 km/h (2 Bft)
29.11.2010 08:40 -2,0 C 88 % 1006,5 hPa 0,0 mm 1,6 km/h (1 Bft) NO 45 0 min 0 UV-I 0 W/m 8,0 km/h (2 Bft)
29.11.2010 08:50 -2,0 C 88 % 1006,6 hPa 0,0 mm 3,2 km/h (1 Bft) NO 45 0 min 0 UV-I 0 W/m 9,7 km/h (2 Bft)
29.11.2010 09:00 -2,0 C 88 % 1006,4 hPa 0,0 mm 3,2 km/h (1 Bft) O-NO 67 0 min 0 UV-I 9 W/m 9,7 km/h (2 Bft)
29.11.2010 09:10 -2,0 C 88 % 1006,4 hPa 0,0 mm 3,2 km/h (1 Bft) O-NO 67 0 min 0 UV-I 12 W/m 8,0 km/h (2 Bft)
29.11.2010 09:20 -2,0 C 88 % 1006,6 hPa 0,0 mm 1,6 km/h (1 Bft) O-NO 67 0 min 0 UV-I 16 W/m 8,0 km/h (2 Bft)
29.11.2010 09:30 -1,9 C 88 % 1006,6 hPa 0,0 mm 3,2 km/h (1 Bft) O-NO 67 0 min 0 UV-I 14 W/m 11,3 km/h (2 Bft)
29.11.2010 09:40 -1,9 C 88 % 1006,6 hPa 0,0 mm 3,2 km/h (1 Bft) O-NO 67 0 min 0 UV-I 19 W/m 8,0 km/h (2 Bft)
29.11.2010 09:50 -1,9 C 88 % 1006,5 hPa 0,0 mm 1,6 km/h (1 Bft) O-NO 67 0 min 0 UV-I 25 W/m 4,8 km/h (1 Bft)
29.11.2010 10:00 -1,8 C 89 % 1006,5 hPa 0,0 mm 1,6 km/h (1 Bft) O-NO 67 0 min 0 UV-I 39 W/m 6,4 km/h (2 Bft)
29.11.2010 10:10 -1,8 C 88 % 1006,6 hPa 0,0 mm 0,0 km/h (0 Bft) O-NO 67 0 min 0 UV-I 46 W/m 3,2 km/h (1 Bft)
29.11.2010 10:20 -1,7 C 89 % 1006,7 hPa 0,0 mm 1,6 km/h (1 Bft) O-NO 67 0 min 0 UV-I 46 W/m 4,8 km/h (1 Bft)
29.11.2010 10:30 -1,6 C 89 % 1006,8 hPa 0,0 mm 1,6 km/h (1 Bft) O-NO 67 0 min 0 UV-I 44 W/m 6,4 km/h (2 Bft)
29.11.2010 10:40 -1,5 C 89 % 1006,9 hPa 0,0 mm 0,0 km/h (0 Bft) O-NO 67 0 min 0 UV-I 42 W/m 4,8 km/h (1 Bft)
29.11.2010 10:50 -1,4 C 89 % 1006,9 hPa 0,0 mm 0,0 km/h (0 Bft) O-NO 67 0 min 0 UV-I 39 W/m 3,2 km/h (1 Bft)
29.11.2010 11:00 -1,3 C 89 % 1006,9 hPa 0,0 mm 0,0 km/h (0 Bft) O-NO 67 0 min 0 UV-I 37 W/m 6,4 km/h (2 Bft)
29.11.2010 11:10 -1,2 C 89 % 1007,0 hPa 0,0 mm 0,0 km/h (0 Bft) O-NO 67 0 min 0 UV-I 35 W/m 3,2 km/h (1 Bft)
29.11.2010 11:20 -1,1 C 89 % 1007,0 hPa 0,0 mm 0,0 km/h (0 Bft) O-NO 67 0 min 0 UV-I 30 W/m 4,8 km/h (1 Bft)
29.11.2010 11:30 -1,0 C 89 % 1006,9 hPa 0,0 mm 1,6 km/h (1 Bft) O-NO 67 0 min 0 UV-I 33 W/m 4,8 km/h (1 Bft)
29.11.2010 11:40 -0,9 C 89 % 1006,9 hPa 0,0 mm 1,6 km/h (1 Bft) O-NO 67 0 min 0 UV-I 33 W/m 4,8 km/h (1 Bft)
29.11.2010 11:50 -0,9 C 89 % 1006,9 hPa 0,0 mm 0,0 km/h (0 Bft) O-NO 67 0 min 0 UV-I 32 W/m 6,4 km/h (2 Bft)
29.11.2010 12:00 -0,8 C 89 % 1007,0 hPa 0,0 mm 0,0 km/h (0 Bft) O-NO 67 0 min 0 UV-I 32 W/m 3,2 km/h (1 Bft)
29.11.2010 12:10 -0,8 C 89 % 1007,1 hPa 0,0 mm 0,0 km/h (0 Bft) O-NO 67 0 min 0 UV-I 30 W/m 4,8 km/h (1 Bft)
29.11.2010 12:20 -0,7 C 89 % 1007,0 hPa 0,0 mm 0,0 km/h (0 Bft) O-NO 67 0 min 0 UV-I 32 W/m 3,2 km/h (1 Bft)
29.11.2010 12:30 -0,6 C 89 % 1007,1 hPa 0,0 mm 0,0 km/h (0 Bft) O-NO 67 0 min 0 UV-I 32 W/m 1,6 km/h (1 Bft)
29.11.2010 12:40 -0,4 C 89 % 1007,1 hPa 0,0 mm 0,0 km/h (0 Bft) O-NO 67 0 min 0 UV-I 30 W/m 3,2 km/h (1 Bft)
29.11.2010 12:50 -0,4 C 89 % 1007,1 hPa 0,0 mm 0,0 km/h (0 Bft) N 0 0 min 0 UV-I 26 W/m 0,0 km/h (0 Bft)
29.11.2010 13:00 -0,3 C 89 % 1007,2 hPa 0,0 mm 0,0 km/h (0 Bft) O-NO 67 0 min 0 UV-I 23 W/m 4,8 km/h (1 Bft)
29.11.2010 13:10 -0,3 C 89 % 1007,3 hPa 0,0 mm 0,0 km/h (0 Bft) O-NO 67 0 min 0 UV-I 21 W/m 3,2 km/h (1 Bft)
29.11.2010 13:20 -0,2 C 89 % 1007,3 hPa 0,0 mm 0,0 km/h (0 Bft) O-NO 67 0 min 0 UV-I 26 W/m 3,2 km/h (1 Bft)
29.11.2010 13:30 -0,2 C 89 % 1007,2 hPa 0,0 mm 1,6 km/h (1 Bft) O-NO 67 0 min 0 UV-I 28 W/m 4,8 km/h (1 Bft)
29.11.2010 13:40 -0,2 C 89 % 1007,6 hPa 0,0 mm 0,0 km/h (0 Bft) O-NO 67 0 min 0 UV-I 28 W/m 3,2 km/h (1 Bft)
29.11.2010 13:50 -0,1 C 89 % 1007,6 hPa 0,0 mm 0,0 km/h (0 Bft) O-NO 67 0 min 0 UV-I 25 W/m 4,8 km/h (1 Bft)
29.11.2010 14:00 -0,1 C 89 % 1007,6 hPa 0,0 mm 1,6 km/h (1 Bft) O-NO 67 0 min 0 UV-I 21 W/m 8,0 km/h (2 Bft)
29.11.2010 14:10 -0,1 C 89 % 1007,7 hPa 0,0 mm 1,6 km/h (1 Bft) O-NO 67 0 min 0 UV-I 19 W/m 8,0 km/h (2 Bft)
29.11.2010 14:20 -0,1 C 89 % 1007,7 hPa 0,0 mm 1,6 km/h (1 Bft) O-NO 67 0 min 0 UV-I 19 W/m 9,7 km/h (2 Bft)
29.11.2010 14:30 -0,2 C 88 % 1007,7 hPa 0,0 mm 1,6 km/h (1 Bft) O-NO 67 0 min 0 UV-I 14 W/m 8,0 km/h (2 Bft)
29.11.2010 14:40 -0,2 C 88 % 1007,7 hPa 0,0 mm 3,2 km/h (1 Bft) O-NO 67 0 min 0 UV-I 11 W/m 8,0 km/h (2 Bft)
29.11.2010 14:50 -0,3 C 88 % 1007,8 hPa 0,0 mm 3,2 km/h (1 Bft) O-NO 67 0 min 0 UV-I 11 W/m 8,0 km/h (2 Bft)
29.11.2010 15:00 -0,4 C 88 % 1007,8 hPa 0,0 mm 3,2 km/h (1 Bft) O-NO 67 0 min 0 UV-I 9 W/m 9,7 km/h (2 Bft)
29.11.2010 15:10 -0,4 C 88 % 1007,8 hPa 0,0 mm 3,2 km/h (1 Bft) NO 45 0 min 0 UV-I 9 W/m 11,3 km/h (2 Bft)
29.11.2010 15:20 -0,5 C 88 % 1007,9 hPa 0,0 mm 4,8 km/h (1 Bft) NO 45 0 min 0 UV-I 9 W/m 16,1 km/h (3 Bft)
29.11.2010 15:30 -0,6 C 88 % 1008,0 hPa 0,0 mm 4,8 km/h (1 Bft) O-NO 67 0 min 0 UV-I 7 W/m 14,5 km/h (3 Bft)
29.11.2010 15:40 -0,7 C 87 % 1008,3 hPa 0,0 mm 6,4 km/h (2 Bft) O-NO 67 0 min 0 UV-I 5 W/m 17,7 km/h (3 Bft)
29.11.2010 15:50 -0,9 C 87 % 1008,2 hPa 0,0 mm 4,8 km/h (1 Bft) O 90 0 min 0 UV-I 0 W/m 12,9 km/h (3 Bft)
29.11.2010 16:00 -0,9 C 87 % 1008,3 hPa 0,0 mm 5,4 km/h (1 Bft) O-NO 74 0 min 0 UV-I 0 W/m 16,1 km/h (3 Bft)
29.11.2010 16:10 -1,0 C 87 % 1008,4 hPa 0,0 mm 3,2 km/h (1 Bft) O-NO 67 0 min 0 UV-I 0 W/m 11,3 km/h (2 Bft)
29.11.2010 16:20 -1,0 C 87 % 1008,5 hPa 0,0 mm 3,2 km/h (1 Bft) O-NO 67 0 min 0 UV-I 0 W/m 11,3 km/h (2 Bft)
29.11.2010 16:30 -1,0 C 87 % 1008,5 hPa 0,0 mm 3,2 km/h (1 Bft) O-NO 67 0 min 0 UV-I 0 W/m 8,0 km/h (2 Bft)
29.11.2010 16:40 -1,1 C 87 % 1008,6 hPa 0,0 mm 3,2 km/h (1 Bft) O-NO 67 0 min 0 UV-I 0 W/m 9,7 km/h (2 Bft)
29.11.2010 16:50 -1,1 C 87 % 1008,7 hPa 0,0 mm 3,2 km/h (1 Bft) O-NO 67 0 min 0 UV-I 0 W/m 9,7 km/h (2 Bft)
29.11.2010 17:00 -1,1 C 87 % 1008,8 hPa 0,0 mm 4,8 km/h (1 Bft) O-NO 67 0 min 0 UV-I 0 W/m 12,9 km/h (3 Bft)
29.11.2010 17:10 -1,1 C 87 % 1009,0 hPa 0,0 mm 4,8 km/h (1 Bft) O-NO 67 0 min 0 UV-I 0 W/m 16,1 km/h (3 Bft)
29.11.2010 17:20 -1,1 C 87 % 1009,0 hPa 0,0 mm 3,2 km/h (1 Bft) O-NO 67 0 min 0 UV-I 0 W/m 11,3 km/h (2 Bft)
29.11.2010 17:30 -1,2 C 87 % 1009,1 hPa 0,0 mm 3,2 km/h (1 Bft) O-NO 67 0 min 0 UV-I 0 W/m 11,3 km/h (2 Bft)
29.11.2010 17:40 -1,2 C 87 % 1009,1 hPa 0,0 mm 3,2 km/h (1 Bft) NO 45 0 min 0 UV-I 0 W/m 11,3 km/h (2 Bft)
29.11.2010 17:50 -1,2 C 87 % 1009,2 hPa 0,0 mm 3,2 km/h (1 Bft) O-NO 67 0 min 0 UV-I 0 W/m 11,3 km/h (2 Bft)
29.11.2010 18:00 -1,2 C 87 % 1009,4 hPa 0,0 mm 4,8 km/h (1 Bft) O 90 0 min 0 UV-I 0 W/m 16,1 km/h (3 Bft)
29.11.2010 18:10 -1,3 C 87 % 1009,5 hPa 0,0 mm 3,2 km/h (1 Bft) O-NO 67 0 min 0 UV-I 0 W/m 16,1 km/h (3 Bft)
29.11.2010 18:20 -1,3 C 87 % 1009,7 hPa 0,0 mm 3,2 km/h (1 Bft) O-NO 67 0 min 0 UV-I 0 W/m 11,3 km/h (2 Bft)
29.11.2010 18:30 -1,3 C 87 % 1009,8 hPa 0,0 mm 3,2 km/h (1 Bft) O-NO 67 0 min 0 UV-I 0 W/m 16,1 km/h (3 Bft)
29.11.2010 18:40 -1,3 C 87 % 1009,8 hPa 0,0 mm 4,8 km/h (1 Bft) O 90 0 min 0 UV-I 0 W/m 11,3 km/h (2 Bft)
29.11.2010 18:50 -1,3 C 86 % 1010,0 hPa 0,0 mm 4,8 km/h (1 Bft) O-NO 67 0 min 0 UV-I 0 W/m 11,3 km/h (2 Bft)
29.11.2010 19:00 -1,3 C 86 % 1010,2 hPa 0,0 mm 3,2 km/h (1 Bft) O 90 0 min 0 UV-I 0 W/m 8,0 km/h (2 Bft)
29.11.2010 19:10 -1,3 C 86 % 1010,0 hPa 0,0 mm 1,6 km/h (1 Bft) O 90 0 min 0 UV-I 0 W/m 11,3 km/h (2 Bft)
29.11.2010 19:20 -1,3 C 86 % 1010,1 hPa 0,0 mm 3,2 km/h (1 Bft) O 90 0 min 0 UV-I 0 W/m 9,7 km/h (2 Bft)
29.11.2010 19:30 -1,3 C 86 % 1010,2 hPa 0,0 mm 1,6 km/h (1 Bft) O-SO 112 0 min 0 UV-I 0 W/m 8,0 km/h (2 Bft)
29.11.2010 19:40 -1,3 C 86 % 1010,2 hPa 0,0 mm 3,2 km/h (1 Bft) O 90 0 min 0 UV-I 0 W/m 9,7 km/h (2 Bft)
29.11.2010 19:50 -1,3 C 86 % 1010,3 hPa 0,0 mm 1,6 km/h (1 Bft) O 90 0 min 0 UV-I 0 W/m 9,7 km/h (2 Bft)
29.11.2010 20:00 -1,3 C 86 % 1010,5 hPa 0,0 mm 3,2 km/h (1 Bft) O 90 0 min 0 UV-I 0 W/m 16,1 km/h (3 Bft)
29.11.2010 20:10 -1,3 C 85 % 1010,7 hPa 0,0 mm 1,6 km/h (1 Bft) O-NO 67 0 min 0 UV-I 0 W/m 11,3 km/h (2 Bft)
29.11.2010 20:20 -1,2 C 85 % 1010,8 hPa 0,0 mm 0,0 km/h (0 Bft) O-NO 67 0 min 0 UV-I 0 W/m 4,8 km/h (1 Bft)
29.11.2010 20:30 -1,3 C 85 % 1010,8 hPa 0,0 mm 1,6 km/h (1 Bft) O-NO 67 0 min 0 UV-I 0 W/m 4,8 km/h (1 Bft)
29.11.2010 20:40 -1,3 C 85 % 1011,0 hPa 0,0 mm 0,0 km/h (0 Bft) O-NO 67 0 min 0 UV-I 0 W/m 4,8 km/h (1 Bft)
29.11.2010 20:50 -1,4 C 85 % 1011,0 hPa 0,0 mm 1,6 km/h (1 Bft) O-NO 67 0 min 0 UV-I 0 W/m 4,8 km/h (1 Bft)
29.11.2010 21:00 -1,4 C 85 % 1011,2 hPa 0,0 mm 0,0 km/h (0 Bft) O-NO 67 0 min 0 UV-I 0 W/m 3,2 km/h (1 Bft)
29.11.2010 21:10 -1,5 C 85 % 1011,3 hPa 0,0 mm 0,0 km/h (0 Bft) O-NO 67 0 min 0 UV-I 0 W/m 3,2 km/h (1 Bft)
29.11.2010 21:20 -1,6 C 85 % 1011,3 hPa 0,0 mm 0,0 km/h (0 Bft) O-NO 67 0 min 0 UV-I 0 W/m 1,6 km/h (1 Bft)
29.11.2010 21:30 -1,6 C 85 % 1011,5 hPa 0,0 mm 0,0 km/h (0 Bft) O-NO 67 0 min 0 UV-I 0 W/m 1,6 km/h (1 Bft)
29.11.2010 21:40 -1,7 C 85 % 1011,5 hPa 0,0 mm 0,0 km/h (0 Bft) O-NO 67 0 min 0 UV-I 0 W/m 3,2 km/h (1 Bft)
29.11.2010 21:50 -1,8 C 85 % 1011,6 hPa 0,0 mm 0,0 km/h (0 Bft) O-NO 67 0 min 0 UV-I 0 W/m 3,2 km/h (1 Bft)
29.11.2010 22:00 -1,8 C 85 % 1011,6 hPa 0,0 mm 0,0 km/h (0 Bft) O-NO 67 0 min 0 UV-I 0 W/m 4,8 km/h (1 Bft)
29.11.2010 22:10 -1,9 C 85 % 1011,9 hPa 0,0 mm 1,6 km/h (1 Bft) O-NO 67 0 min 0 UV-I 0 W/m 8,0 km/h (2 Bft)
29.11.2010 22:20 -1,9 C 85 % 1011,9 hPa 0,0 mm 3,2 km/h (1 Bft) O-NO 67 0 min 0 UV-I 0 W/m 6,4 km/h (2 Bft)
29.11.2010 22:30 -1,9 C 85 % 1012,0 hPa 0,0 mm 4,8 km/h (1 Bft) O 90 0 min 0 UV-I 0 W/m 16,1 km/h (3 Bft)
29.11.2010 22:40 -1,9 C 85 % 1012,1 hPa 0,0 mm 3,2 km/h (1 Bft) O 90 0 min 0 UV-I 0 W/m 14,5 km/h (3 Bft)
29.11.2010 22:50 -1,9 C 85 % 1012,3 hPa 0,0 mm 1,6 km/h (1 Bft) O 90 0 min 0 UV-I 0 W/m 4,8 km/h (1 Bft)
29.11.2010 23:00 -2,0 C 85 % 1012,3 hPa 0,0 mm 1,6 km/h (1 Bft) O 90 0 min 0 UV-I 0 W/m 8,0 km/h (2 Bft)
29.11.2010 23:10 -2,0 C 85 % 1012,4 hPa 0,0 mm 3,2 km/h (1 Bft) O 90 0 min 0 UV-I 0 W/m 9,7 km/h (2 Bft)
29.11.2010 23:20 -2,0 C 85 % 1012,4 hPa 0,0 mm 1,6 km/h (1 Bft) O 90 0 min 0 UV-I 0 W/m 6,4 km/h (2 Bft)
29.11.2010 23:30 -2,0 C 85 % 1012,5 hPa 0,0 mm 1,6 km/h (1 Bft) O 90 0 min 0 UV-I 0 W/m 4,8 km/h (1 Bft)
29.11.2010 23:40 -2,1 C 85 % 1012,6 hPa 0,0 mm 1,6 km/h (1 Bft) O 90 0 min 0 UV-I 0 W/m 6,4 km/h (2 Bft)
29.11.2010 23:50 -2,1 C 85 % 1012,8 hPa 0,0 mm 1,6 km/h (1 Bft) O 90 0 min 0 UV-I 0 W/m 6,4 km/h (2 Bft)
_ Min-Zeit 02:00 20:10 06:50 - 10:10 - - - - - 12:50
Minimum _ -2,4 C 85 % 1005,4 hPa - 0,0 km/h (0 Bft) - - - - - 0,0 km/h (0 Bft)
_ Max-Zeit 13:50 10:00 23:50 00:00 05:10 - - 00:00 00:00 10:10 05:00
Maximum _ -0,1 C 89 % 1012,8 hPa 0,0 mm 6,4 km/h
O (2 Bft)
- - 0 min 0 UV-I 46 W/m 20,9 km/h
SO (4 Bft)
Durchschnitt _ -1,6 C 87 % 1007,8 hPa #0,0 mm 2,1 km/h (1 Bft) O-NO - #0 min. 0 UV-I 25 W/m 8,3 km/h (2 Bft)